AYNZ/LAE METAR and TAF weather

Enter ICAO airport designator
Station Type Date Time Source
AYNZ METAR 2020/07/05 02:00 UTC NOAA

AYNZ 050200Z 12005KT 9999 HZ -RA SCT030 OVC080 27/22 Q1012


Station Type Date Time Source
AYNZ Decoded METAR 2020/07/05 02:00 UTC NOAA

Station name not available
Jul 04, 2020 - 10:00 PM EDT / 2020.07.05 0200 UTC
Wind: from the ESE (120 degrees) at 6 MPH (5 KT):0
Visibility: greater than 7 mile(s):0
Sky conditions: overcast
Weather: haze; light rain
Temperature: 80 F (27 C)
Dew Point: 71 F (22 C)
Relative Humidity: 74%
Pressure (altimeter): 29.88 in. Hg (1012 hPa)
ob: AYNZ 050200Z 12005KT 9999 HZ -RA SCT030 OVC080 27/22 Q1012
cycle: 2

Station Type Date Time Source
AYNZ TAF 2015/08/19 08:15 UTC NOAA

TAF AYNZ 190550Z 1908/1920 09015KT 9999 SCT020 SCT120
FM191400 VRB03KT 9999 BKN040 Q 1011 1014 1013 1010

Example: see airport list